Aeroporto :
LOGIN :

Iscrizione | Disclaimer

   EN    FR    IT 

 










Sommario :    VFR   VFR Marginale   IFR   IFR Intensivo   IFR Molto Intensivo
Visibilità : 
Base nubi : 
>= 8 km
>= 3000ft
5 / 8 km
1000 / 3000 ft
1500m / 5 km
500 / 1000 ft
800 / 1500m
200 / 500 ft
< 800m
< 200 ft
Simboli :   Temporali  Nebbia  Neve Forte  Precipitazioni Forti  Vento > 20 kt
SIGMETs :   Varie  Temporali  Ghiacco  Turbolenza  Onda orograficha  Ceneri Vulcaniche






- Altitudine del aeroporto : 325 ft
- Codice IATA : BES


LFRB - Brest

ULTIMO METAR :
  • 181800Z AUTO 05009KT CAVOK 06/04 Q1029 NOSIG

METARs OBSOLETI :
  • 181730Z AUTO 05010KT CAVOK 06/04 Q1028 NOSIG
  • 181700Z AUTO 04008KT CAVOK 07/04 Q1027 NOSIG
  • 181630Z AUTO 05009KT CAVOK 08/04 Q1027 NOSIG
  • 181600Z AUTO 06010KT CAVOK 09/04 Q1026 NOSIG
  • 181530Z AUTO 04011KT CAVOK 09/05 Q1026 NOSIG

TAF TAF LFRB
Valido dal 18 a 18 ore il 20 a 00 ore UTC


181700Z 1818/1924 04010KT 9999 FEW030
PROB30
TEMPO 1903/1906 04005KT MIFG
ATIS : +33 2 98 32 02 71



MetMap, La meteo Aeronautica in un colpo d'occhio ! - Copyright ORBIFLY Dicembre 2007 - Disclaimer

ORBIFLY MET'MAP TEAM :

Programmazione e sviluppo : Alexandra Zaïnal
Concezione : Baudouin d'Aumeries
Aiuto per la programmazione : Marc-Olivier Méhu
Supporto tecnico e logistico : Manuel Goepfert
Aiuto per la traduzione : Arnaldo La Scala

Contatto : metmap@orbifly.com




FONTI E CREDITI :

   NOAA